sensor_id;sensor_type;location;lat;lon;timestamp;P1;durP1;ratioP1;P2;durP2;ratioP2
2892;SDS011;1456;51.840;12.184;2022-09-09T00:04:30;2.00;;;1.90;;
2892;SDS011;1456;51.840;12.184;2022-09-09T00:07:03;0.40;;;0.40;;
2892;SDS011;1456;51.840;12.184;2022-09-09T00:12:25;2.13;;;1.30;;
2892;SDS011;1456;51.840;12.184;2022-09-09T00:15:00;0.97;;;0.97;;
2892;SDS011;1456;51.840;12.184;2022-09-09T00:23:14;0.73;;;0.73;;
2892;SDS011;1456;51.840;12.184;2022-09-09T00:28:30;0.77;;;0.77;;
2892;SDS011;1456;51.840;12.184;2022-09-09T00:31:13;0.57;;;0.57;;
2892;SDS011;1456;51.840;12.184;2022-09-09T00:33:43;0.53;;;0.53;;
2892;SDS011;1456;51.840;12.184;2022-09-09T00:36:14;1.90;;;1.47;;
2892;SDS011;1456;51.840;12.184;2022-09-09T00:38:46;3.50;;;2.13;;
2892;SDS011;1456;51.840;12.184;2022-09-09T00:41:18;1.23;;;1.13;;
2892;SDS011;1456;51.840;12.184;2022-09-09T00:43:46;0.40;;;0.40;;
2892;SDS011;1456;51.840;12.184;2022-09-09T00:56:12;0.50;;;0.50;;
2892;SDS011;1456;51.840;12.184;2022-09-09T00:58:43;0.57;;;0.57;;
2892;SDS011;1456;51.840;12.184;2022-09-09T01:01:29;7.23;;;1.33;;
2892;SDS011;1456;51.840;12.184;2022-09-09T01:03:55;1.07;;;0.83;;
2892;SDS011;1456;51.840;12.184;2022-09-09T01:06:37;1.07;;;0.50;;
2892;SDS011;1456;51.840;12.184;2022-09-09T01:12:23;0.53;;;0.53;;
2892;SDS011;1456;51.840;12.184;2022-09-09T01:14:56;0.47;;;0.47;;
2892;SDS011;1456;51.840;12.184;2022-09-09T01:18:16;0.63;;;0.63;;
2892;SDS011;1456;51.840;12.184;2022-09-09T01:20:37;0.30;;;0.30;;
2892;SDS011;1456;51.840;12.184;2022-09-09T01:28:47;0.30;;;0.30;;
2892;SDS011;1456;51.840;12.184;2022-09-09T01:31:20;0.50;;;0.50;;
2892;SDS011;1456;51.840;12.184;2022-09-09T01:33:51;1.80;;;1.07;;
2892;SDS011;1456;51.840;12.184;2022-09-09T01:38:52;0.43;;;0.43;;
2892;SDS011;1456;51.840;12.184;2022-09-09T01:43:47;1.37;;;1.27;;
2892;SDS011;1456;51.840;12.184;2022-09-09T01:46:13;0.37;;;0.33;;
2892;SDS011;1456;51.840;12.184;2022-09-09T01:48:41;0.30;;;0.30;;
2892;SDS011;1456;51.840;12.184;2022-09-09T01:51:08;0.93;;;0.70;;
2892;SDS011;1456;51.840;12.184;2022-09-09T01:53:36;0.40;;;0.40;;
2892;SDS011;1456;51.840;12.184;2022-09-09T02:04:01;1.13;;;0.40;;
2892;SDS011;1456;51.840;12.184;2022-09-09T02:06:35;1.37;;;0.93;;
2892;SDS011;1456;51.840;12.184;2022-09-09T02:09:06;0.63;;;0.63;;
2892;SDS011;1456;51.840;12.184;2022-09-09T02:11:36;0.50;;;0.50;;
2892;SDS011;1456;51.840;12.184;2022-09-09T02:14:08;0.30;;;0.30;;
2892;SDS011;1456;51.840;12.184;2022-09-09T02:16:43;0.60;;;0.30;;
2892;SDS011;1456;51.840;12.184;2022-09-09T02:19:30;1.90;;;0.80;;
2892;SDS011;1456;51.840;12.184;2022-09-09T02:22:00;0.37;;;0.37;;
2892;SDS011;1456;51.840;12.184;2022-09-09T02:24:30;1.13;;;0.80;;
2892;SDS011;1456;51.840;12.184;2022-09-09T02:26:59;8.63;;;0.77;;
2892;SDS011;1456;51.840;12.184;2022-09-09T02:29:39;0.50;;;0.50;;
2892;SDS011;1456;51.840;12.184;2022-09-09T02:32:15;0.73;;;0.73;;
2892;SDS011;1456;51.840;12.184;2022-09-09T02:34:48;0.40;;;0.33;;
2892;SDS011;1456;51.840;12.184;2022-09-09T02:37:23;0.30;;;0.30;;
2892;SDS011;1456;51.840;12.184;2022-09-09T02:39:54;0.40;;;0.40;;
2892;SDS011;1456;51.840;12.184;2022-09-09T02:42:20;0.50;;;0.50;;
2892;SDS011;1456;51.840;12.184;2022-09-09T02:44:50;0.50;;;0.50;;
2892;SDS011;1456;51.840;12.184;2022-09-09T02:47:34;0.50;;;0.50;;
2892;SDS011;1456;51.840;12.184;2022-09-09T02:50:17;0.50;;;0.50;;
2892;SDS011;1456;51.840;12.184;2022-09-09T02:55:37;0.40;;;0.40;;
2892;SDS011;1456;51.840;12.184;2022-09-09T02:58:11;1.27;;;0.67;;
2892;SDS011;1456;51.840;12.184;2022-09-09T03:00:42;0.50;;;0.50;;
2892;SDS011;1456;51.840;12.184;2022-09-09T03:03:12;1.23;;;1.23;;
2892;SDS011;1456;51.840;12.184;2022-09-09T03:05:38;0.30;;;0.30;;
2892;SDS011;1456;51.840;12.184;2022-09-09T03:08:05;0.40;;;0.40;;
2892;SDS011;1456;51.840;12.184;2022-09-09T03:10:31;0.40;;;0.40;;
2892;SDS011;1456;51.840;12.184;2022-09-09T03:12:58;0.30;;;0.30;;
2892;SDS011;1456;51.840;12.184;2022-09-09T03:15:24;1.53;;;0.93;;
2892;SDS011;1456;51.840;12.184;2022-09-09T03:17:54;0.30;;;0.30;;
2892;SDS011;1456;51.840;12.184;2022-09-09T03:20:20;0.40;;;0.40;;
2892;SDS011;1456;51.840;12.184;2022-09-09T03:22:51;4.83;;;1.03;;
2892;SDS011;1456;51.840;12.184;2022-09-09T03:25:23;0.40;;;0.30;;
2892;SDS011;1456;51.840;12.184;2022-09-09T03:27:50;0.40;;;0.40;;
2892;SDS011;1456;51.840;12.184;2022-09-09T03:30:20;0.40;;;0.40;;
2892;SDS011;1456;51.840;12.184;2022-09-09T03:32:47;0.30;;;0.23;;
2892;SDS011;1456;51.840;12.184;2022-09-09T03:35:19;1.50;;;0.60;;
2892;SDS011;1456;51.840;12.184;2022-09-09T03:37:46;0.60;;;0.60;;
2892;SDS011;1456;51.840;12.184;2022-09-09T03:40:12;0.30;;;0.30;;
2892;SDS011;1456;51.840;12.184;2022-09-09T03:42:38;0.47;;;0.43;;
2892;SDS011;1456;51.840;12.184;2022-09-09T03:45:05;0.40;;;0.30;;
2892;SDS011;1456;51.840;12.184;2022-09-09T03:47:33;0.40;;;0.40;;
2892;SDS011;1456;51.840;12.184;2022-09-09T03:52:34;0.40;;;0.40;;
2892;SDS011;1456;51.840;12.184;2022-09-09T03:55:02;0.50;;;0.50;;
2892;SDS011;1456;51.840;12.184;2022-09-09T03:57:29;0.40;;;0.40;;
2892;SDS011;1456;51.840;12.184;2022-09-09T03:59:57;0.40;;;0.30;;
2892;SDS011;1456;51.840;12.184;2022-09-09T04:02:25;0.70;;;0.60;;
2892;SDS011;1456;51.840;12.184;2022-09-09T04:04:50;0.40;;;0.40;;
2892;SDS011;1456;51.840;12.184;2022-09-09T04:07:16;0.40;;;0.30;;
2892;SDS011;1456;51.840;12.184;2022-09-09T04:09:41;0.30;;;0.30;;
2892;SDS011;1456;51.840;12.184;2022-09-09T04:12:08;0.40;;;0.40;;
2892;SDS011;1456;51.840;12.184;2022-09-09T04:14:37;0.30;;;0.30;;
2892;SDS011;1456;51.840;12.184;2022-09-09T04:17:02;0.93;;;0.80;;
2892;SDS011;1456;51.840;12.184;2022-09-09T04:19:32;0.30;;;0.30;;
2892;SDS011;1456;51.840;12.184;2022-09-09T04:21:58;0.63;;;0.63;;
2892;SDS011;1456;51.840;12.184;2022-09-09T04:24:24;0.40;;;0.40;;
2892;SDS011;1456;51.840;12.184;2022-09-09T04:26:53;2.40;;;1.60;;
2892;SDS011;1456;51.840;12.184;2022-09-09T04:29:19;0.87;;;0.80;;
2892;SDS011;1456;51.840;12.184;2022-09-09T04:31:45;0.37;;;0.30;;
2892;SDS011;1456;51.840;12.184;2022-09-09T04:34:11;0.50;;;0.50;;
2892;SDS011;1456;51.840;12.184;2022-09-09T04:36:36;0.30;;;0.20;;
2892;SDS011;1456;51.840;12.184;2022-09-09T04:39:03;1.47;;;0.50;;
2892;SDS011;1456;51.840;12.184;2022-09-09T04:41:29;0.40;;;0.40;;
2892;SDS011;1456;51.840;12.184;2022-09-09T04:43:56;1.07;;;1.07;;
2892;SDS011;1456;51.840;12.184;2022-09-09T04:46:22;0.30;;;0.30;;
2892;SDS011;1456;51.840;12.184;2022-09-09T04:48:49;0.40;;;0.30;;
2892;SDS011;1456;51.840;12.184;2022-09-09T04:51:17;0.50;;;0.50;;
2892;SDS011;1456;51.840;12.184;2022-09-09T04:53:43;0.97;;;0.90;;
2892;SDS011;1456;51.840;12.184;2022-09-09T04:56:12;0.60;;;0.50;;
2892;SDS011;1456;51.840;12.184;2022-09-09T04:58:41;0.40;;;0.40;;
2892;SDS011;1456;51.840;12.184;2022-09-09T05:01:27;0.43;;;0.40;;
2892;SDS011;1456;51.840;12.184;2022-09-09T05:03:54;0.57;;;0.57;;
2892;SDS011;1456;51.840;12.184;2022-09-09T05:06:20;0.73;;;0.73;;
2892;SDS011;1456;51.840;12.184;2022-09-09T05:08:46;0.40;;;0.40;;
2892;SDS011;1456;51.840;12.184;2022-09-09T05:13:42;0.40;;;0.30;;
2892;SDS011;1456;51.840;12.184;2022-09-09T05:16:11;0.40;;;0.30;;
2892;SDS011;1456;51.840;12.184;2022-09-09T05:18:41;0.40;;;0.40;;
2892;SDS011;1456;51.840;12.184;2022-09-09T05:21:12;0.30;;;0.30;;
2892;SDS011;1456;51.840;12.184;2022-09-09T05:23:39;0.30;;;0.30;;
2892;SDS011;1456;51.840;12.184;2022-09-09T05:26:05;0.40;;;0.40;;
2892;SDS011;1456;51.840;12.184;2022-09-09T05:28:34;0.30;;;0.30;;
2892;SDS011;1456;51.840;12.184;2022-09-09T05:31:02;0.77;;;0.77;;
2892;SDS011;1456;51.840;12.184;2022-09-09T05:33:30;1.07;;;1.07;;
2892;SDS011;1456;51.840;12.184;2022-09-09T05:36:07;0.40;;;0.30;;
2892;SDS011;1456;51.840;12.184;2022-09-09T05:38:36;0.77;;;0.77;;
2892;SDS011;1456;51.840;12.184;2022-09-09T05:41:04;0.93;;;0.93;;
2892;SDS011;1456;51.840;12.184;2022-09-09T05:43:32;0.40;;;0.30;;
2892;SDS011;1456;51.840;12.184;2022-09-09T05:46:08;0.30;;;0.30;;
2892;SDS011;1456;51.840;12.184;2022-09-09T05:48:36;0.50;;;0.50;;
2892;SDS011;1456;51.840;12.184;2022-09-09T05:51:05;0.60;;;0.60;;
2892;SDS011;1456;51.840;12.184;2022-09-09T05:53:33;0.40;;;0.40;;
2892;SDS011;1456;51.840;12.184;2022-09-09T05:56:00;0.50;;;0.50;;
2892;SDS011;1456;51.840;12.184;2022-09-09T05:58:32;0.70;;;0.70;;
2892;SDS011;1456;51.840;12.184;2022-09-09T06:03:29;4.47;;;0.57;;
2892;SDS011;1456;51.840;12.184;2022-09-09T06:05:58;0.40;;;0.40;;
2892;SDS011;1456;51.840;12.184;2022-09-09T06:08:25;0.30;;;0.20;;
2892;SDS011;1456;51.840;12.184;2022-09-09T06:10:51;4.50;;;1.00;;
2892;SDS011;1456;51.840;12.184;2022-09-09T06:13:17;0.40;;;0.30;;
2892;SDS011;1456;51.840;12.184;2022-09-09T06:15:50;0.53;;;0.53;;
2892;SDS011;1456;51.840;12.184;2022-09-09T06:18:17;0.50;;;0.30;;
2892;SDS011;1456;51.840;12.184;2022-09-09T06:20:53;0.37;;;0.30;;
2892;SDS011;1456;51.840;12.184;2022-09-09T06:23:29;0.50;;;0.50;;
2892;SDS011;1456;51.840;12.184;2022-09-09T06:26:05;0.50;;;0.30;;
2892;SDS011;1456;51.840;12.184;2022-09-09T06:28:34;1.37;;;1.27;;
2892;SDS011;1456;51.840;12.184;2022-09-09T06:31:05;0.87;;;0.87;;
2892;SDS011;1456;51.840;12.184;2022-09-09T06:33:39;1.40;;;0.67;;
2892;SDS011;1456;51.840;12.184;2022-09-09T06:36:10;0.30;;;0.20;;
2892;SDS011;1456;51.840;12.184;2022-09-09T06:38:38;0.40;;;0.37;;
2892;SDS011;1456;51.840;12.184;2022-09-09T06:43:34;0.60;;;0.60;;
2892;SDS011;1456;51.840;12.184;2022-09-09T06:46:02;0.40;;;0.40;;
2892;SDS011;1456;51.840;12.184;2022-09-09T06:48:34;0.30;;;0.30;;
2892;SDS011;1456;51.840;12.184;2022-09-09T06:51:03;0.43;;;0.43;;
2892;SDS011;1456;51.840;12.184;2022-09-09T06:53:30;0.43;;;0.20;;
2892;SDS011;1456;51.840;12.184;2022-09-09T06:55:58;2.47;;;0.30;;
2892;SDS011;1456;51.840;12.184;2022-09-09T06:58:26;0.40;;;0.40;;
2892;SDS011;1456;51.840;12.184;2022-09-09T07:00:52;0.40;;;0.20;;
2892;SDS011;1456;51.840;12.184;2022-09-09T07:03:18;0.70;;;0.70;;
2892;SDS011;1456;51.840;12.184;2022-09-09T07:05:53;0.40;;;0.37;;
2892;SDS011;1456;51.840;12.184;2022-09-09T07:08:19;0.63;;;0.50;;
2892;SDS011;1456;51.840;12.184;2022-09-09T07:13:16;0.30;;;0.20;;
2892;SDS011;1456;51.840;12.184;2022-09-09T07:15:43;0.57;;;0.57;;
2892;SDS011;1456;51.840;12.184;2022-09-09T07:18:09;0.37;;;0.27;;
2892;SDS011;1456;51.840;12.184;2022-09-09T07:20:35;1.73;;;0.83;;
2892;SDS011;1456;51.840;12.184;2022-09-09T07:23:00;0.30;;;0.30;;
2892;SDS011;1456;51.840;12.184;2022-09-09T07:25:27;0.30;;;0.20;;
2892;SDS011;1456;51.840;12.184;2022-09-09T07:27:55;0.30;;;0.20;;
2892;SDS011;1456;51.840;12.184;2022-09-09T07:30:21;0.40;;;0.40;;
2892;SDS011;1456;51.840;12.184;2022-09-09T07:32:47;0.93;;;0.53;;
2892;SDS011;1456;51.840;12.184;2022-09-09T07:35:14;0.40;;;0.30;;
2892;SDS011;1456;51.840;12.184;2022-09-09T07:37:40;0.70;;;0.70;;
2892;SDS011;1456;51.840;12.184;2022-09-09T07:40:07;0.30;;;0.30;;
2892;SDS011;1456;51.840;12.184;2022-09-09T07:42:33;2.03;;;0.47;;
2892;SDS011;1456;51.840;12.184;2022-09-09T07:44:59;0.60;;;0.43;;
2892;SDS011;1456;51.840;12.184;2022-09-09T07:47:24;0.53;;;0.53;;
2892;SDS011;1456;51.840;12.184;2022-09-09T07:49:51;0.40;;;0.20;;
2892;SDS011;1456;51.840;12.184;2022-09-09T07:52:18;0.30;;;0.30;;
2892;SDS011;1456;51.840;12.184;2022-09-09T07:54:46;1.63;;;0.80;;
2892;SDS011;1456;51.840;12.184;2022-09-09T07:57:11;0.73;;;0.50;;
2892;SDS011;1456;51.840;12.184;2022-09-09T07:59:37;0.60;;;0.60;;
2892;SDS011;1456;51.840;12.184;2022-09-09T08:02:04;0.37;;;0.33;;
2892;SDS011;1456;51.840;12.184;2022-09-09T08:04:30;0.30;;;0.30;;
2892;SDS011;1456;51.840;12.184;2022-09-09T08:06:57;0.60;;;0.60;;
2892;SDS011;1456;51.840;12.184;2022-09-09T08:09:24;2.20;;;0.70;;
2892;SDS011;1456;51.840;12.184;2022-09-09T08:11:52;0.40;;;0.40;;
2892;SDS011;1456;51.840;12.184;2022-09-09T08:14:18;0.67;;;0.40;;
2892;SDS011;1456;51.840;12.184;2022-09-09T08:16:44;1.67;;;0.43;;
2892;SDS011;1456;51.840;12.184;2022-09-09T08:19:13;0.50;;;0.50;;
2892;SDS011;1456;51.840;12.184;2022-09-09T08:21:41;0.47;;;0.47;;
2892;SDS011;1456;51.840;12.184;2022-09-09T08:24:08;0.50;;;0.50;;
2892;SDS011;1456;51.840;12.184;2022-09-09T08:26:54;0.40;;;0.40;;
2892;SDS011;1456;51.840;12.184;2022-09-09T08:29:23;0.30;;;0.30;;
2892;SDS011;1456;51.840;12.184;2022-09-09T08:31:50;0.40;;;0.30;;
2892;SDS011;1456;51.840;12.184;2022-09-09T08:34:19;0.40;;;0.40;;
2892;SDS011;1456;51.840;12.184;2022-09-09T08:36:46;1.23;;;0.73;;
2892;SDS011;1456;51.840;12.184;2022-09-09T08:39:13;0.50;;;0.50;;
2892;SDS011;1456;51.840;12.184;2022-09-09T08:47:25;0.50;;;0.50;;
2892;SDS011;1456;51.840;12.184;2022-09-09T08:52:51;0.80;;;0.80;;
2892;SDS011;1456;51.840;12.184;2022-09-09T08:58:05;1.33;;;1.33;;
2892;SDS011;1456;51.840;12.184;2022-09-09T09:01:28;0.87;;;0.87;;
2892;SDS011;1456;51.840;12.184;2022-09-09T09:03:48;0.60;;;0.60;;
2892;SDS011;1456;51.840;12.184;2022-09-09T09:09:02;1.00;;;1.00;;
2892;SDS011;1456;51.840;12.184;2022-09-09T09:11:39;0.90;;;0.90;;
2892;SDS011;1456;51.840;12.184;2022-09-09T09:14:28;1.10;;;1.10;;
2892;SDS011;1456;51.840;12.184;2022-09-09T09:17:03;1.20;;;1.20;;
2892;SDS011;1456;51.840;12.184;2022-09-09T09:19:34;1.47;;;1.47;;
2892;SDS011;1456;51.840;12.184;2022-09-09T09:22:11;2.30;;;2.30;;
2892;SDS011;1456;51.840;12.184;2022-09-09T09:25:03;1.20;;;1.20;;
2892;SDS011;1456;51.840;12.184;2022-09-09T09:32:53;2.80;;;2.80;;
2892;SDS011;1456;51.840;12.184;2022-09-09T09:35:29;3.10;;;3.10;;
2892;SDS011;1456;51.840;12.184;2022-09-09T09:37:54;3.10;;;3.10;;
2892;SDS011;1456;51.840;12.184;2022-09-09T09:40:21;4.10;;;4.00;;
2892;SDS011;1456;51.840;12.184;2022-09-09T09:42:52;3.93;;;3.93;;
2892;SDS011;1456;51.840;12.184;2022-09-09T09:45:26;2.90;;;2.90;;
2892;SDS011;1456;51.840;12.184;2022-09-09T09:47:59;3.00;;;3.00;;
2892;SDS011;1456;51.840;12.184;2022-09-09T09:53:29;3.70;;;3.70;;
2892;SDS011;1456;51.840;12.184;2022-09-09T09:58:31;4.77;;;4.67;;
2892;SDS011;1456;51.840;12.184;2022-09-09T10:00:59;3.63;;;3.63;;
2892;SDS011;1456;51.840;12.184;2022-09-09T10:03:35;4.00;;;4.00;;
2892;SDS011;1456;51.840;12.184;2022-09-09T10:06:04;3.63;;;3.63;;
2892;SDS011;1456;51.840;12.184;2022-09-09T10:08:33;4.93;;;4.93;;
2892;SDS011;1456;51.840;12.184;2022-09-09T10:11:18;5.27;;;5.27;;
2892;SDS011;1456;51.840;12.184;2022-09-09T10:19:52;5.70;;;5.60;;
2892;SDS011;1456;51.840;12.184;2022-09-09T10:22:27;5.60;;;5.50;;
2892;SDS011;1456;51.840;12.184;2022-09-09T10:36:07;6.10;;;6.00;;
2892;SDS011;1456;51.840;12.184;2022-09-09T10:38:47;5.77;;;5.77;;
2892;SDS011;1456;51.840;12.184;2022-09-09T10:44:26;6.03;;;6.03;;
2892;SDS011;1456;51.840;12.184;2022-09-09T10:50:19;6.40;;;6.40;;
2892;SDS011;1456;51.840;12.184;2022-09-09T10:56:07;6.70;;;6.60;;
2892;SDS011;1456;51.840;12.184;2022-09-09T10:58:44;6.23;;;6.13;;
2892;SDS011;1456;51.840;12.184;2022-09-09T11:01:39;6.50;;;6.50;;
2892;SDS011;1456;51.840;12.184;2022-09-09T11:04:35;6.30;;;6.10;;
2892;SDS011;1456;51.840;12.184;2022-09-09T11:07:08;6.10;;;6.10;;
2892;SDS011;1456;51.840;12.184;2022-09-09T11:09:38;5.90;;;5.90;;
2892;SDS011;1456;51.840;12.184;2022-09-09T11:12:09;6.40;;;6.40;;
2892;SDS011;1456;51.840;12.184;2022-09-09T11:14:45;10.13;;;7.07;;
2892;SDS011;1456;51.840;12.184;2022-09-09T11:17:23;7.63;;;7.53;;
2892;SDS011;1456;51.840;12.184;2022-09-09T11:19:57;6.60;;;6.50;;
2892;SDS011;1456;51.840;12.184;2022-09-09T11:30:29;5.53;;;5.50;;
2892;SDS011;1456;51.840;12.184;2022-09-09T11:39:02;5.70;;;5.70;;
2892;SDS011;1456;51.840;12.184;2022-09-09T11:41:36;5.60;;;5.60;;
2892;SDS011;1456;51.840;12.184;2022-09-09T11:44:12;5.57;;;5.57;;
2892;SDS011;1456;51.840;12.184;2022-09-09T11:46:59;5.83;;;5.73;;
2892;SDS011;1456;51.840;12.184;2022-09-09T11:49:29;6.00;;;6.00;;
2892;SDS011;1456;51.840;12.184;2022-09-09T11:51:56;6.60;;;6.50;;
2892;SDS011;1456;51.840;12.184;2022-09-09T11:54:28;5.40;;;5.40;;
2892;SDS011;1456;51.840;12.184;2022-09-09T11:56:54;5.00;;;5.00;;
2892;SDS011;1456;51.840;12.184;2022-09-09T12:01:54;4.70;;;4.70;;
2892;SDS011;1456;51.840;12.184;2022-09-09T12:04:48;3.63;;;3.63;;
2892;SDS011;1456;51.840;12.184;2022-09-09T12:12:21;5.03;;;4.93;;
2892;SDS011;1456;51.840;12.184;2022-09-09T12:17:24;5.00;;;5.00;;
2892;SDS011;1456;51.840;12.184;2022-09-09T12:30:48;9.80;;;9.70;;
2892;SDS011;1456;51.840;12.184;2022-09-09T12:33:24;10.00;;;9.90;;
2892;SDS011;1456;51.840;12.184;2022-09-09T12:35:59;10.00;;;9.90;;
2892;SDS011;1456;51.840;12.184;2022-09-09T12:38:32;9.97;;;9.87;;
2892;SDS011;1456;51.840;12.184;2022-09-09T12:41:01;9.40;;;9.30;;
2892;SDS011;1456;51.840;12.184;2022-09-09T12:43:27;8.93;;;8.83;;
2892;SDS011;1456;51.840;12.184;2022-09-09T12:46:00;9.03;;;8.93;;
2892;SDS011;1456;51.840;12.184;2022-09-09T12:48:38;9.80;;;9.70;;
2892;SDS011;1456;51.840;12.184;2022-09-09T12:51:19;10.90;;;10.23;;
2892;SDS011;1456;51.840;12.184;2022-09-09T12:53:50;11.00;;;10.80;;
2892;SDS011;1456;51.840;12.184;2022-09-09T12:56:20;10.93;;;10.73;;
2892;SDS011;1456;51.840;12.184;2022-09-09T12:58:49;10.40;;;10.30;;
2892;SDS011;1456;51.840;12.184;2022-09-09T13:03:51;9.83;;;9.63;;
2892;SDS011;1456;51.840;12.184;2022-09-09T13:06:20;9.77;;;9.67;;
2892;SDS011;1456;51.840;12.184;2022-09-09T13:08:48;10.70;;;10.50;;
2892;SDS011;1456;51.840;12.184;2022-09-09T13:11:36;9.60;;;9.50;;
2892;SDS011;1456;51.840;12.184;2022-09-09T13:14:03;9.27;;;9.17;;
2892;SDS011;1456;51.840;12.184;2022-09-09T13:16:30;10.10;;;10.00;;
2892;SDS011;1456;51.840;12.184;2022-09-09T13:19:06;9.90;;;9.80;;
2892;SDS011;1456;51.840;12.184;2022-09-09T13:21:34;10.97;;;10.77;;
2892;SDS011;1456;51.840;12.184;2022-09-09T13:24:02;10.00;;;9.90;;
2892;SDS011;1456;51.840;12.184;2022-09-09T13:26:31;10.93;;;10.73;;
2892;SDS011;1456;51.840;12.184;2022-09-09T13:29:08;11.40;;;11.10;;
2892;SDS011;1456;51.840;12.184;2022-09-09T13:31:44;10.90;;;10.70;;
2892;SDS011;1456;51.840;12.184;2022-09-09T13:34:12;11.30;;;11.10;;
2892;SDS011;1456;51.840;12.184;2022-09-09T13:36:39;11.00;;;10.80;;
2892;SDS011;1456;51.840;12.184;2022-09-09T13:39:12;11.60;;;11.40;;
2892;SDS011;1456;51.840;12.184;2022-09-09T13:41:44;11.40;;;11.20;;
2892;SDS011;1456;51.840;12.184;2022-09-09T13:44:25;11.40;;;11.20;;
2892;SDS011;1456;51.840;12.184;2022-09-09T13:47:04;10.70;;;10.60;;
2892;SDS011;1456;51.840;12.184;2022-09-09T13:49:31;11.60;;;11.40;;
2892;SDS011;1456;51.840;12.184;2022-09-09T13:54:42;11.57;;;11.37;;
2892;SDS011;1456;51.840;12.184;2022-09-09T13:57:20;11.07;;;10.87;;
2892;SDS011;1456;51.840;12.184;2022-09-09T13:59:48;11.50;;;11.30;;
2892;SDS011;1456;51.840;12.184;2022-09-09T14:02:17;11.23;;;11.03;;
2892;SDS011;1456;51.840;12.184;2022-09-09T14:04:43;11.60;;;11.40;;
2892;SDS011;1456;51.840;12.184;2022-09-09T14:07:12;11.83;;;11.63;;
2892;SDS011;1456;51.840;12.184;2022-09-09T14:09:42;11.53;;;11.33;;
2892;SDS011;1456;51.840;12.184;2022-09-09T14:12:11;11.90;;;11.70;;
2892;SDS011;1456;51.840;12.184;2022-09-09T14:14:37;11.37;;;11.17;;
2892;SDS011;1456;51.840;12.184;2022-09-09T14:17:03;11.47;;;11.27;;
2892;SDS011;1456;51.840;12.184;2022-09-09T14:19:29;11.70;;;11.50;;
2892;SDS011;1456;51.840;12.184;2022-09-09T14:21:59;11.50;;;11.30;;
2892;SDS011;1456;51.840;12.184;2022-09-09T14:24:25;11.90;;;11.70;;
2892;SDS011;1456;51.840;12.184;2022-09-09T14:26:51;11.40;;;11.20;;
2892;SDS011;1456;51.840;12.184;2022-09-09T14:29:16;11.50;;;11.30;;
2892;SDS011;1456;51.840;12.184;2022-09-09T14:31:42;11.10;;;10.90;;
2892;SDS011;1456;51.840;12.184;2022-09-09T14:34:08;12.00;;;11.80;;
2892;SDS011;1456;51.840;12.184;2022-09-09T14:36:36;11.30;;;11.10;;
2892;SDS011;1456;51.840;12.184;2022-09-09T14:39:03;11.93;;;11.63;;
2892;SDS011;1456;51.840;12.184;2022-09-09T14:41:29;11.67;;;11.47;;
2892;SDS011;1456;51.840;12.184;2022-09-09T14:43:55;11.80;;;11.60;;
2892;SDS011;1456;51.840;12.184;2022-09-09T14:46:21;12.00;;;11.80;;
2892;SDS011;1456;51.840;12.184;2022-09-09T14:48:49;11.37;;;11.17;;
2892;SDS011;1456;51.840;12.184;2022-09-09T14:51:22;11.40;;;11.20;;
2892;SDS011;1456;51.840;12.184;2022-09-09T14:53:53;11.40;;;11.20;;
2892;SDS011;1456;51.840;12.184;2022-09-09T14:56:20;10.80;;;10.70;;
2892;SDS011;1456;51.840;12.184;2022-09-09T14:58:49;12.37;;;12.17;;
2892;SDS011;1456;51.840;12.184;2022-09-09T15:01:17;11.90;;;11.70;;
2892;SDS011;1456;51.840;12.184;2022-09-09T15:03:48;11.70;;;11.50;;
2892;SDS011;1456;51.840;12.184;2022-09-09T15:06:18;11.73;;;11.53;;
2892;SDS011;1456;51.840;12.184;2022-09-09T15:08:45;11.50;;;11.30;;
2892;SDS011;1456;51.840;12.184;2022-09-09T15:11:12;11.60;;;11.40;;
2892;SDS011;1456;51.840;12.184;2022-09-09T15:13:39;11.63;;;11.43;;
2892;SDS011;1456;51.840;12.184;2022-09-09T15:18:42;11.20;;;11.00;;
2892;SDS011;1456;51.840;12.184;2022-09-09T15:21:10;12.20;;;11.17;;
2892;SDS011;1456;51.840;12.184;2022-09-09T15:23:41;10.30;;;10.20;;
2892;SDS011;1456;51.840;12.184;2022-09-09T15:26:08;11.10;;;10.90;;
2892;SDS011;1456;51.840;12.184;2022-09-09T15:28:34;10.90;;;10.70;;
2892;SDS011;1456;51.840;12.184;2022-09-09T15:31:04;11.30;;;11.10;;
2892;SDS011;1456;51.840;12.184;2022-09-09T15:33:36;13.00;;;12.70;;
2892;SDS011;1456;51.840;12.184;2022-09-09T15:36:18;11.00;;;10.80;;
2892;SDS011;1456;51.840;12.184;2022-09-09T15:38:46;10.37;;;10.27;;
2892;SDS011;1456;51.840;12.184;2022-09-09T15:41:13;10.80;;;10.60;;
2892;SDS011;1456;51.840;12.184;2022-09-09T15:43:42;11.03;;;10.83;;
2892;SDS011;1456;51.840;12.184;2022-09-09T15:48:58;12.37;;;11.60;;
2892;SDS011;1456;51.840;12.184;2022-09-09T15:51:30;10.83;;;10.57;;
2892;SDS011;1456;51.840;12.184;2022-09-09T15:53:59;10.70;;;10.50;;
2892;SDS011;1456;51.840;12.184;2022-09-09T15:56:26;10.40;;;10.30;;
2892;SDS011;1456;51.840;12.184;2022-09-09T15:58:53;9.70;;;9.60;;
2892;SDS011;1456;51.840;12.184;2022-09-09T16:01:20;10.20;;;10.10;;
2892;SDS011;1456;51.840;12.184;2022-09-09T16:03:46;10.63;;;10.43;;
2892;SDS011;1456;51.840;12.184;2022-09-09T16:06:16;10.20;;;10.10;;
2892;SDS011;1456;51.840;12.184;2022-09-09T16:08:44;9.87;;;9.77;;
2892;SDS011;1456;51.840;12.184;2022-09-09T16:11:15;10.20;;;10.10;;
2892;SDS011;1456;51.840;12.184;2022-09-09T16:13:45;10.20;;;10.10;;
2892;SDS011;1456;51.840;12.184;2022-09-09T16:16:14;9.87;;;9.77;;
2892;SDS011;1456;51.840;12.184;2022-09-09T16:18:43;11.47;;;11.00;;
2892;SDS011;1456;51.840;12.184;2022-09-09T16:21:17;10.57;;;10.40;;
2892;SDS011;1456;51.840;12.184;2022-09-09T16:23:44;10.20;;;10.10;;
2892;SDS011;1456;51.840;12.184;2022-09-09T16:26:11;10.70;;;10.50;;
2892;SDS011;1456;51.840;12.184;2022-09-09T16:28:38;10.20;;;10.10;;
2892;SDS011;1456;51.840;12.184;2022-09-09T16:31:07;10.90;;;10.70;;
2892;SDS011;1456;51.840;12.184;2022-09-09T16:33:35;10.33;;;10.13;;
2892;SDS011;1456;51.840;12.184;2022-09-09T16:36:07;9.60;;;9.50;;
2892;SDS011;1456;51.840;12.184;2022-09-09T16:38:36;10.23;;;10.13;;
2892;SDS011;1456;51.840;12.184;2022-09-09T16:41:03;10.40;;;10.30;;
2892;SDS011;1456;51.840;12.184;2022-09-09T16:43:33;10.57;;;10.37;;
2892;SDS011;1456;51.840;12.184;2022-09-09T16:46:00;10.50;;;10.33;;
2892;SDS011;1456;51.840;12.184;2022-09-09T16:48:31;10.20;;;10.00;;
2892;SDS011;1456;51.840;12.184;2022-09-09T16:51:04;9.90;;;9.80;;
2892;SDS011;1456;51.840;12.184;2022-09-09T16:53:32;10.80;;;10.60;;
2892;SDS011;1456;51.840;12.184;2022-09-09T16:55:58;9.40;;;9.30;;
2892;SDS011;1456;51.840;12.184;2022-09-09T16:58:29;9.80;;;9.70;;
2892;SDS011;1456;51.840;12.184;2022-09-09T17:00:58;9.10;;;9.00;;
2892;SDS011;1456;51.840;12.184;2022-09-09T17:03:26;8.83;;;8.73;;
2892;SDS011;1456;51.840;12.184;2022-09-09T17:05:52;8.30;;;8.20;;
2892;SDS011;1456;51.840;12.184;2022-09-09T17:08:17;8.80;;;8.70;;
2892;SDS011;1456;51.840;12.184;2022-09-09T17:10:43;9.10;;;9.00;;
2892;SDS011;1456;51.840;12.184;2022-09-09T17:13:09;8.60;;;8.50;;
2892;SDS011;1456;51.840;12.184;2022-09-09T17:15:41;8.80;;;8.70;;
2892;SDS011;1456;51.840;12.184;2022-09-09T17:18:08;8.60;;;8.50;;
2892;SDS011;1456;51.840;12.184;2022-09-09T17:20:38;8.67;;;8.57;;
2892;SDS011;1456;51.840;12.184;2022-09-09T17:23:04;8.63;;;8.53;;
2892;SDS011;1456;51.840;12.184;2022-09-09T17:25:31;8.60;;;8.50;;
2892;SDS011;1456;51.840;12.184;2022-09-09T17:27:57;9.30;;;9.20;;
2892;SDS011;1456;51.840;12.184;2022-09-09T17:30:24;9.87;;;9.67;;
2892;SDS011;1456;51.840;12.184;2022-09-09T17:32:51;8.60;;;8.50;;
2892;SDS011;1456;51.840;12.184;2022-09-09T17:35:16;8.73;;;8.63;;
2892;SDS011;1456;51.840;12.184;2022-09-09T17:37:42;8.03;;;7.93;;
2892;SDS011;1456;51.840;12.184;2022-09-09T17:40:10;8.20;;;8.10;;
2892;SDS011;1456;51.840;12.184;2022-09-09T17:42:36;9.50;;;9.40;;
2892;SDS011;1456;51.840;12.184;2022-09-09T17:45:02;15.67;;;10.27;;
2892;SDS011;1456;51.840;12.184;2022-09-09T17:47:28;9.20;;;9.10;;
2892;SDS011;1456;51.840;12.184;2022-09-09T17:49:55;9.30;;;9.20;;
2892;SDS011;1456;51.840;12.184;2022-09-09T17:52:21;9.30;;;9.20;;